Time;durP1;ratioP1;P1;durP2;ratioP2;P2;SDS_P1;SDS_P2;PMS_P1;PMS_P2;Temp;Humidity;BMP_temperature;BMP_pressure;BME280_temperature;BME280_humidity;BME280_pressure;Samples;Min_cycle;Max_cycle;Signal;HPM_P1;HPM_P2
2023/02/25 00:00:31;;;;;;;13.50;6.20;;;;;;;6.44;100.00;96894.58;269777;1269;22527;-90
2023/02/25 00:07:04;;;;;;;11.90;5.80;;;;;;;6.47;100.00;96867.84;271290;1269;23568;-90
2023/02/25 00:13:20;;;;;;;16.00;7.00;;;;;;;6.45;100.00;96850.62;272974;1263;25284;-90
2023/02/25 00:19:26;;;;;;;18.60;7.00;;;;;;;6.44;99.87;96832.99;271403;1262;22570;-91
2023/02/25 00:25:29;;;;;;;13.20;6.40;;;;;;;6.40;99.98;96828.52;270845;1269;22554;-91
2023/02/25 00:31:32;;;;;;;15.40;7.00;;;;;;;6.36;100.00;96844.77;270181;1269;23363;-91
2023/02/25 00:37:36;;;;;;;16.50;7.70;;;;;;;6.31;100.00;96864.77;270781;1269;22605;-91
2023/02/25 00:44:01;;;;;;;14.20;7.20;;;;;;;6.29;100.00;96868.18;271245;1262;22561;-91
2023/02/25 00:50:08;;;;;;;15.70;7.40;;;;;;;6.16;100.00;96861.73;270631;1269;26504;-90
2023/02/25 00:56:14;;;;;;;16.30;8.30;;;;;;;6.00;100.00;96837.62;270132;1266;23862;-91
2023/02/25 01:02:17;;;;;;;18.90;7.80;;;;;;;5.83;100.00;96811.33;270730;1263;22324;-89
2023/02/25 01:08:20;;;;;;;15.40;7.90;;;;;;;5.70;100.00;96801.05;270985;1257;23139;-89
2023/02/25 01:14:24;;;;;;;18.50;8.60;;;;;;;5.61;100.00;96792.72;269658;1263;22558;-91
2023/02/25 01:20:28;;;;;;;17.70;8.40;;;;;;;5.59;100.00;96786.92;271755;1269;22526;-91
2023/02/25 01:26:37;;;;;;;17.90;8.80;;;;;;;5.56;100.00;96788.70;270887;1269;22330;-90
2023/02/25 01:32:43;;;;;;;17.50;9.20;;;;;;;5.54;100.00;96782.75;271054;1269;23894;-91
2023/02/25 01:38:46;;;;;;;20.90;9.90;;;;;;;5.49;100.00;96783.08;273271;1269;22302;-90
2023/02/25 01:45:16;;;;;;;17.20;9.20;;;;;;;5.47;100.00;96792.23;272937;1269;23406;-88
2023/02/25 01:51:19;;;;;;;21.90;10.30;;;;;;;5.46;100.00;96799.92;270209;1269;25327;-89
2023/02/25 01:57:41;;;;;;;20.50;10.80;;;;;;;5.44;100.00;96800.31;270940;1269;22546;-90
2023/02/25 02:03:55;;;;;;;21.00;10.00;;;;;;;5.40;100.00;96794.59;271425;1268;23565;-89
2023/02/25 02:10:18;;;;;;;23.10;11.00;;;;;;;5.33;100.00;96789.81;272633;1269;22366;-90
2023/02/25 02:16:43;;;;;;;20.90;10.10;;;;;;;5.25;100.00;96792.01;271627;1269;22565;-90
2023/02/25 02:23:21;;;;;;;21.60;10.40;;;;;;;5.14;100.00;96779.18;270786;1269;22949;-88
2023/02/25 02:29:59;;;;;;;20.40;11.10;;;;;;;5.09;100.00;96765.40;271551;1267;22686;-89
2023/02/25 02:36:26;;;;;;;22.40;10.50;;;;;;;5.00;100.00;96742.58;272801;1269;22475;-88
2023/02/25 02:42:40;;;;;;;21.70;9.90;;;;;;;4.94;100.00;96724.94;272997;1267;22559;-89
2023/02/25 02:48:56;;;;;;;19.00;9.10;;;;;;;4.92;100.00;96724.40;272021;1269;22415;-91
2023/02/25 02:55:15;;;;;;;19.80;9.00;;;;;;;4.92;100.00;96725.57;270697;1268;22832;-90
2023/02/25 03:01:23;;;;;;;21.10;9.10;;;;;;;4.93;100.00;96715.02;272238;1268;22678;-89
2023/02/25 03:08:11;;;;;;;19.20;10.10;;;;;;;4.89;100.00;96716.12;273451;1268;22336;-89
2023/02/25 03:14:38;;;;;;;18.30;10.30;;;;;;;4.87;100.00;96714.19;273464;1269;23728;-91
2023/02/25 03:20:48;;;;;;;18.50;9.50;;;;;;;4.87;100.00;96727.20;272111;1268;22258;-91
2023/02/25 03:26:55;;;;;;;19.80;9.70;;;;;;;4.92;100.00;96736.94;270948;1268;22528;-91
2023/02/25 03:33:20;;;;;;;21.10;10.00;;;;;;;4.95;100.00;96737.32;270531;1268;25288;-90
2023/02/25 03:39:48;;;;;;;20.40;9.70;;;;;;;4.97;100.00;96730.11;271737;1268;22525;-91
2023/02/25 03:45:53;;;;;;;20.80;10.70;;;;;;;4.97;100.00;96723.53;269565;1268;22437;-89
2023/02/25 03:52:12;;;;;;;22.10;8.60;;;;;;;5.00;100.00;96726.23;270571;1268;24245;-89
2023/02/25 03:58:25;;;;;;;20.80;10.40;;;;;;;5.03;100.00;96750.17;270371;1263;22658;-89
2023/02/25 04:04:40;;;;;;;25.80;13.10;;;;;;;5.01;100.00;96767.98;271527;1253;22259;-89
2023/02/25 04:10:46;;;;;;;26.70;13.80;;;;;;;4.81;100.00;96790.02;272729;1268;23372;-90
2023/02/25 04:17:06;;;;;;;26.10;14.10;;;;;;;4.52;100.00;96818.08;273092;1269;22456;-89
2023/02/25 04:23:36;;;;;;;29.30;15.50;;;;;;;4.08;100.00;96854.08;272637;1268;23176;-89
2023/02/25 04:29:45;;;;;;;29.20;15.00;;;;;;;3.82;100.00;96864.15;270508;1267;22541;-89
2023/02/25 04:35:52;;;;;;;24.00;12.70;;;;;;;3.63;100.00;96863.92;270475;1269;22515;-90
2023/02/25 04:41:54;;;;;;;24.00;13.60;;;;;;;3.42;100.00;96859.65;270422;1269;22527;-88
2023/02/25 04:47:59;;;;;;;25.00;11.60;;;;;;;3.21;100.00;96854.91;270566;1269;22208;-90
2023/02/25 04:54:04;;;;;;;26.60;13.10;;;;;;;3.15;100.00;96850.87;271647;1268;22416;-90
2023/02/25 05:00:33;;;;;;;29.70;15.80;;;;;;;3.15;100.00;96850.71;271290;1269;25771;-91
2023/02/25 05:06:39;;;;;;;30.80;14.70;;;;;;;3.17;100.00;96864.24;272524;1267;22324;-89
2023/02/25 05:13:30;;;;;;;26.10;13.30;;;;;;;3.16;100.00;96872.66;273461;1268;22505;-89
2023/02/25 05:19:33;;;;;;;24.50;14.40;;;;;;;3.12;100.00;96881.73;273621;1268;23408;-89
2023/02/25 05:25:40;;;;;;;28.00;15.30;;;;;;;3.08;100.00;96898.95;273213;1267;25565;-88
2023/02/25 05:31:53;;;;;;;26.10;15.00;;;;;;;3.03;100.00;96900.38;272713;1268;22341;-89
2023/02/25 05:38:03;;;;;;;24.70;14.40;;;;;;;3.00;100.00;96894.80;272629;1269;23089;-90
2023/02/25 05:44:09;;;;;;;27.20;14.40;;;;;;;3.04;100.00;96900.84;273074;1269;22331;-89
2023/02/25 05:50:11;;;;;;;26.10;16.10;;;;;;;3.03;100.00;96898.52;271256;1269;22621;-89
2023/02/25 05:56:23;;;;;;;29.90;17.00;;;;;;;2.99;100.00;96907.99;270275;1268;22537;-89
2023/02/25 06:02:29;;;;;;;31.80;17.90;;;;;;;2.97;100.00;96906.73;269926;1269;22546;-90
2023/02/25 06:08:43;;;;;;;28.30;16.10;;;;;;;2.90;100.00;96901.66;269522;1269;24210;-89
2023/02/25 06:14:47;;;;;;;31.00;18.00;;;;;;;2.84;100.00;96905.33;269879;1253;22683;-89
2023/02/25 06:20:59;;;;;;;26.60;14.80;;;;;;;2.81;100.00;96916.48;270325;1263;22540;-90
2023/02/25 06:27:15;;;;;;;21.60;12.20;;;;;;;2.78;100.00;96916.70;269978;1269;23540;-89
2023/02/25 06:33:17;;;;;;;18.60;11.40;;;;;;;2.78;100.00;96918.23;271688;1268;22579;-90
2023/02/25 06:39:32;;;;;;;19.30;11.50;;;;;;;2.74;100.00;96920.61;270427;1268;24264;-89
2023/02/25 06:45:56;;;;;;;18.30;10.50;;;;;;;2.79;100.00;96929.14;271703;1269;23419;-89
2023/02/25 06:52:16;;;;;;;16.30;9.90;;;;;;;2.84;100.00;96923.86;272778;1267;24621;-89
2023/02/25 06:58:33;;;;;;;;;;;;;;;;;;;;;
2023/02/25 07:04:48;;;;;;;;;;;;;;;;;;;;;
2023/02/25 07:11:09;;;;;;;22.30;14.00;;;;;;;2.93;100.00;96907.86;270258;1267;22533;-90
2023/02/25 07:17:18;;;;;;;23.80;14.70;;;;;;;3.08;100.00;96910.06;271792;1269;22513;-89
2023/02/25 07:23:24;;;;;;;26.60;15.60;;;;;;;3.45;100.00;96905.27;273258;1269;22354;-91
2023/02/25 07:30:26;;;;;;;21.20;13.70;;;;;;;3.96;100.00;96895.04;273675;1268;22295;-89
2023/02/25 07:37:02;;;;;;;21.80;13.90;;;;;;;4.44;100.00;96893.16;270764;1269;22564;-90
2023/02/25 07:43:43;;;;;;;22.30;13.30;;;;;;;4.74;100.00;96892.71;270552;1268;24384;-91
2023/02/25 07:58:33;;;;;;;7.50;3.90;;;;;;;4.90;100.00;96882.02;271381;1267;25310;-90
2023/02/25 08:04:36;;;;;;;7.80;3.90;;;;;;;5.00;100.00;96876.37;270581;1269;23320;-91
2023/02/25 08:10:54;;;;;;;7.20;4.00;;;;;;;4.97;100.00;96866.52;271436;1269;23232;-90
2023/02/25 08:17:00;;;;;;;6.90;4.30;;;;;;;5.06;100.00;96863.89;270793;1269;23501;-91
2023/02/25 08:23:07;;;;;;;8.10;4.20;;;;;;;5.06;100.00;96869.31;269875;1270;23828;-90
2023/02/25 08:29:12;;;;;;;5.90;3.40;;;;;;;5.15;100.00;96868.37;270665;1268;22344;-88
2023/02/25 08:35:16;;;;;;;6.40;2.80;;;;;;;5.08;100.00;96874.66;271530;1269;22537;-92
2023/02/25 08:41:21;;;;;;;3.60;2.70;;;;;;;5.02;100.00;96881.17;270898;1254;22588;-91
2023/02/25 08:47:27;;;;;;;5.50;2.30;;;;;;;5.04;100.00;96883.03;270278;1266;22564;-89
2023/02/25 08:53:39;;;;;;;4.30;2.20;;;;;;;5.09;100.00;96892.16;270169;1265;23209;-91
2023/02/25 08:59:48;;;;;;;4.30;2.60;;;;;;;5.07;100.00;96900.23;270403;1260;23581;-89
2023/02/25 09:06:09;;;;;;;4.80;2.40;;;;;;;5.03;100.00;96898.77;271918;1268;22534;-91
2023/02/25 09:12:37;;;;;;;6.80;2.50;;;;;;;5.13;99.78;96894.09;271301;1260;24283;-91
2023/02/25 09:19:17;;;;;;;3.10;1.80;;;;;;;5.38;99.12;96897.78;270996;1269;24652;-91
2023/02/25 09:25:44;;;;;;;5.30;2.30;;;;;;;5.48;97.47;96900.63;271633;1269;22546;-89
2023/02/25 09:31:49;;;;;;;4.20;1.90;;;;;;;5.65;96.92;96904.77;271033;1267;22258;-91
2023/02/25 09:38:04;;;;;;;3.70;2.00;;;;;;;6.16;96.27;96907.92;270332;1272;24228;-91
2023/02/25 09:44:52;;;;;;;4.70;1.80;;;;;;;6.19;93.86;96918.61;271292;1269;22561;-90
2023/02/25 09:59:07;;;;;;;5.90;1.90;;;;;;;6.58;95.12;96916.82;272869;1269;22803;-89
2023/02/25 10:05:50;;;;;;;;;;;;;;;;;;;;;
2023/02/25 10:12:24;;;;;;;3.60;1.70;;;;;;;7.45;90.22;96906.88;271677;1269;24218;-91
2023/02/25 10:19:04;;;;;;;4.40;1.70;;;;;;;7.25;89.92;96904.83;272199;1269;22356;-90
2023/02/25 10:25:16;;;;;;;;;;;;;;;7.54;88.43;96901.58;273789;1270;22418;-91
2023/02/25 10:31:46;;;;;;;3.90;1.70;;;;;;;8.58;87.37;96891.56;271806;1269;23070;-91
2023/02/25 10:38:02;;;;;;;3.10;1.40;;;;;;;8.67;83.42;96891.36;272847;1269;22554;-90
2023/02/25 10:44:40;;;;;;;2.40;1.00;;;;;;;8.06;82.75;96883.14;269730;1269;2009246;-91
2023/02/25 10:51:29;;;;;;;4.50;1.90;;;;;;;8.07;80.95;96873.02;272969;1267;22446;-91
2023/02/25 10:58:43;;;;;;;;;;;;;;;;;;;;;
2023/02/25 11:06:09;;;;;;;;;;;;;;;;;;;;;
2023/02/25 11:20:15;;;;;;;2.70;1.20;;;;;;;8.01;77.63;96877.07;273003;1268;22488;-91
2023/02/25 11:26:46;;;;;;;2.40;0.90;;;;;;;7.74;77.65;96884.40;272777;1264;22335;-89
2023/02/25 11:32:56;;;;;;;2.70;1.00;;;;;;;7.52;76.96;96896.39;273106;1268;22274;-91
2023/02/25 11:39:23;;;;;;;3.30;1.40;;;;;;;7.37;77.07;96905.40;270939;1262;24085;-91
2023/02/25 11:45:37;;;;;;;3.70;1.40;;;;;;;7.17;76.85;96907.38;269716;1260;22561;-90
2023/02/25 11:51:58;;;;;;;3.10;1.50;;;;;;;6.89;76.81;96916.46;270560;1268;22539;-90
2023/02/25 11:59:03;;;;;;;2.50;1.20;;;;;;;6.63;76.98;96926.05;270650;1261;22636;-91
2023/02/25 12:05:32;;;;;;;3.00;1.30;;;;;;;6.26;77.24;96942.11;270307;1268;22515;-91
2023/02/25 12:12:54;;;;;;;;;;;;;;;;;;;;;
2023/02/25 12:20:16;;;;;;;4.50;1.40;;;;;;;5.71;78.58;96947.17;270868;1268;24085;-91
2023/02/25 12:27:29;;;;;;;4.40;1.40;;;;;;;5.45;79.45;96945.05;271735;1269;22243;-91
2023/02/25 12:33:57;;;;;;;5.50;2.50;;;;;;;5.41;80.25;96947.39;270751;1268;22579;-89
2023/02/25 12:40:23;;;;;;;3.90;1.90;;;;;;;5.21;80.76;96960.95;271317;1269;23241;-90
2023/02/25 12:46:29;;;;;;;4.00;1.70;;;;;;;4.49;81.33;96983.31;271176;1265;22596;-90
2023/02/25 12:53:02;;;;;;;4.40;2.10;;;;;;;3.94;84.12;96975.70;272264;1269;22470;-90
2023/02/25 12:59:13;;;;;;;5.00;2.70;;;;;;;3.94;86.25;96980.42;272355;1268;22541;-88
2023/02/25 13:05:40;;;;;;;5.80;3.10;;;;;;;3.90;87.30;97002.52;272077;1268;23138;-88
2023/02/25 13:12:21;;;;;;;5.40;3.30;;;;;;;3.65;87.48;97013.67;273241;1270;22591;-90
2023/02/25 13:19:12;;;;;;;6.70;3.10;;;;;;;3.44;88.84;97028.68;270934;1269;23301;-90
2023/02/25 13:25:58;;;;;;;7.00;2.70;;;;;;;3.43;90.04;97038.33;271087;1269;22219;-91
2023/02/25 13:32:28;;;;;;;3.20;1.90;;;;;;;3.25;89.85;97059.50;272652;1268;22324;-90
2023/02/25 13:38:54;;;;;;;4.10;2.00;;;;;;;2.92;90.03;97056.42;270148;1268;22591;-89
2023/02/25 13:45:28;;;;;;;5.30;2.40;;;;;;;2.78;90.99;97048.33;271983;1268;23216;-91
2023/02/25 13:52:09;;;;;;;10.00;4.00;;;;;;;2.92;92.54;97053.95;272597;1268;22461;-90
2023/02/25 13:58:23;;;;;;;9.70;3.60;;;;;;;3.18;93.36;97055.52;271681;1269;22542;-89
2023/02/25 14:05:03;;;;;;;6.90;3.40;;;;;;;3.33;92.94;97062.27;272393;1269;22390;-90
2023/02/25 14:11:20;;;;;;;6.20;2.70;;;;;;;3.44;93.63;97063.14;271782;1271;25417;-91
2023/02/25 14:17:47;;;;;;;7.20;2.90;;;;;;;3.70;93.80;97068.60;270416;1269;22568;-90
2023/02/25 14:24:06;;;;;;;5.20;2.80;;;;;;;3.87;93.58;97078.94;271512;1269;22335;-90
2023/02/25 14:30:50;;;;;;;9.60;4.10;;;;;;;3.86;93.37;97087.73;271484;1269;25331;-90
2023/02/25 14:37:28;;;;;;;9.10;4.30;;;;;;;3.78;93.37;97087.77;269989;1269;22343;-89
2023/02/25 14:43:35;;;;;;;11.80;6.10;;;;;;;3.72;93.35;97084.92;270504;1269;22562;-90
2023/02/25 14:50:11;;;;;;;13.50;6.90;;;;;;;3.72;93.31;97092.36;269956;1271;23762;-90
2023/02/25 14:56:22;;;;;;;13.10;5.50;;;;;;;3.75;93.74;97101.42;270304;1270;22669;-89
2023/02/25 15:02:36;;;;;;;12.50;6.00;;;;;;;3.74;93.76;97118.50;271531;1256;22570;-89
2023/02/25 15:09:00;;;;;;;13.40;6.50;;;;;;;3.62;94.08;97140.89;270962;1258;22549;-89
2023/02/25 15:15:22;;;;;;;8.50;4.20;;;;;;;3.48;94.27;97154.45;270765;1269;22285;-89
2023/02/25 15:21:47;;;;;;;3.80;1.90;;;;;;;3.27;93.82;97158.88;272664;1269;22563;-89
2023/02/25 15:28:01;;;;;;;5.20;1.70;;;;;;;3.01;93.42;97160.45;270740;1270;24253;-90
2023/02/25 15:34:21;;;;;;;4.30;2.40;;;;;;;2.79;93.86;97164.92;272538;1269;22461;-90
2023/02/25 15:40:33;;;;;;;6.40;2.80;;;;;;;2.72;93.94;97168.38;271468;1271;22370;-89
2023/02/25 15:46:41;;;;;;;7.90;3.50;;;;;;;2.60;93.87;97176.41;273259;1269;22550;-90
2023/02/25 15:52:52;;;;;;;5.70;2.90;;;;;;;2.48;94.10;97185.20;272232;1269;23110;-91
2023/02/25 15:58:59;;;;;;;6.90;2.50;;;;;;;2.37;94.02;97200.02;272352;1268;22233;-90
2023/02/25 16:05:25;;;;;;;7.80;3.30;;;;;;;2.28;94.09;97210.30;272075;1268;22370;-90
2023/02/25 16:11:41;;;;;;;9.10;3.90;;;;;;;2.22;94.20;97221.77;273389;1268;23979;-91
2023/02/25 16:17:46;;;;;;;10.80;4.40;;;;;;;2.24;94.67;97234.60;272982;1268;22527;-91
2023/02/25 16:23:51;;;;;;;6.60;3.60;;;;;;;2.32;94.99;97246.77;272170;1268;22400;-92
2023/02/25 16:30:31;;;;;;;9.30;4.20;;;;;;;2.35;95.22;97259.31;273583;1270;22430;-90
2023/02/25 16:36:46;;;;;;;8.00;4.40;;;;;;;2.37;95.24;97278.33;272051;1268;22563;-89
2023/02/25 16:42:56;;;;;;;7.50;4.00;;;;;;;2.39;95.12;97293.48;272229;1265;23533;-91
2023/02/25 16:49:32;;;;;;;10.60;4.40;;;;;;;2.41;95.05;97302.23;270663;1269;22683;-88
2023/02/25 16:55:41;;;;;;;8.70;4.20;;;;;;;2.41;94.74;97315.87;273396;1268;22446;-90
2023/02/25 17:02:04;;;;;;;8.60;4.30;;;;;;;2.37;94.96;97332.48;271912;1269;22342;-89
2023/02/25 17:08:44;;;;;;;;;;;;;;;;;;;;;
2023/02/25 17:15:16;;;;;;;10.20;6.70;;;;;;;2.31;95.35;97356.46;271205;1269;26636;-88
2023/02/25 17:21:34;;;;;;;10.90;6.30;;;;;;;2.31;95.57;97357.98;271152;1269;22569;-89
2023/02/25 17:27:53;;;;;;;12.10;5.60;;;;;;;2.31;95.72;97361.33;271299;1269;22566;-90
2023/02/25 17:34:02;;;;;;;9.90;4.70;;;;;;;2.29;95.81;97364.74;270975;1269;23526;-90
2023/02/25 17:40:13;;;;;;;7.70;4.00;;;;;;;2.27;95.58;97373.42;272156;1269;23320;-89
2023/02/25 17:46:26;;;;;;;9.00;4.40;;;;;;;2.26;95.83;97375.34;270864;1268;22495;-88
2023/02/25 17:52:34;;;;;;;8.70;5.30;;;;;;;2.24;96.04;97389.20;270165;1269;22555;-89
2023/02/25 17:59:01;;;;;;;;;;;;;;;;;;;;;
2023/02/25 18:06:32;;;;;;;7.50;5.00;;;;;;;2.16;95.85;97416.05;272143;1268;22578;-91
2023/02/25 18:12:49;;;;;;;9.70;5.10;;;;;;;2.12;96.03;97423.15;270279;1271;22531;-90
2023/02/25 18:18:58;;;;;;;10.50;6.10;;;;;;;2.07;96.13;97428.13;270863;1261;24327;-90
2023/02/25 18:25:31;;;;;;;11.10;6.40;;;;;;;2.04;96.36;97432.92;271060;1269;22674;-90
2023/02/25 18:31:40;;;;;;;15.10;7.20;;;;;;;2.03;96.50;97430.67;270470;1269;22579;-88
2023/02/25 18:37:49;;;;;;;14.20;6.30;;;;;;;2.05;96.61;97434.80;270961;1259;22564;-89
2023/02/25 18:43:53;;;;;;;7.20;4.50;;;;;;;2.06;96.84;97441.06;271917;1271;22536;-88
2023/02/25 18:50:00;;;;;;;8.90;5.40;;;;;;;2.04;96.56;97440.96;272981;1269;22544;-89
2023/02/25 18:56:03;;;;;;;9.20;4.70;;;;;;;2.02;96.28;97449.31;270766;1271;22601;-91
2023/02/25 19:02:24;;;;;;;8.40;5.00;;;;;;;2.00;96.18;97451.66;270444;1265;23771;-88
2023/02/25 19:08:28;;;;;;;11.00;5.40;;;;;;;1.97;96.10;97453.85;270209;1270;23430;-91
2023/02/25 19:14:31;;;;;;;7.20;4.60;;;;;;;1.97;96.25;97469.59;272666;1269;23348;-89
2023/02/25 19:20:36;;;;;;;7.60;4.20;;;;;;;1.99;96.12;97476.23;272419;1269;23472;-89
2023/02/25 19:26:38;;;;;;;9.90;5.70;;;;;;;1.99;96.04;97486.73;273375;1271;22268;-90
2023/02/25 19:32:43;;;;;;;11.80;6.00;;;;;;;2.00;95.97;97491.60;272615;1269;22268;-90
2023/02/25 19:38:46;;;;;;;13.40;6.30;;;;;;;1.99;96.12;97492.14;271703;1269;22557;-90
2023/02/25 19:45:07;;;;;;;11.40;6.20;;;;;;;1.98;95.87;97500.30;270515;1269;24179;-90
2023/02/25 19:51:09;;;;;;;8.40;5.80;;;;;;;1.96;96.08;97502.48;272029;1268;22575;-89
2023/02/25 19:57:11;;;;;;;10.90;5.60;;;;;;;1.94;96.39;97508.69;271501;1261;22570;-89
2023/02/25 20:03:14;;;;;;;10.40;6.80;;;;;;;1.92;96.29;97517.52;270328;1276;22852;-88
2023/02/25 20:09:18;;;;;;;9.60;4.80;;;;;;;1.89;96.29;97522.61;270458;1270;22449;-89
2023/02/25 20:15:22;;;;;;;16.90;8.90;;;;;;;1.85;96.43;97529.16;270575;1271;23117;-88
2023/02/25 20:21:34;;;;;;;17.50;9.60;;;;;;;1.79;96.52;97530.79;272534;1268;22594;-89
2023/02/25 20:27:42;;;;;;;21.60;9.40;;;;;;;1.72;96.96;97535.48;270747;1269;22617;-89
2023/02/25 20:33:50;;;;;;;22.10;10.60;;;;;;;1.60;97.38;97531.33;272258;1271;22256;-89
2023/02/25 20:39:58;;;;;;;19.10;9.50;;;;;;;1.54;97.70;97533.40;270932;1272;23525;-88
2023/02/25 20:46:04;;;;;;;23.30;10.60;;;;;;;1.47;97.85;97545.65;272196;1268;23584;-88
2023/02/25 20:52:33;;;;;;;16.20;9.20;;;;;;;1.38;98.03;97555.84;271062;1267;22819;-89
2023/02/25 20:58:40;;;;;;;18.60;9.70;;;;;;;1.31;98.53;97554.58;270132;1260;22607;-89
2023/02/25 21:04:44;;;;;;;15.80;7.70;;;;;;;1.27;99.19;97555.58;271332;1266;22585;-88
2023/02/25 21:10:53;;;;;;;19.60;8.80;;;;;;;1.25;99.35;97567.67;270305;1270;22553;-88
2023/02/25 21:17:00;;;;;;;24.90;12.20;;;;;;;1.23;99.43;97583.13;270103;1270;22546;-89
2023/02/25 21:23:05;;;;;;;23.80;11.30;;;;;;;1.20;99.69;97596.05;270285;1269;22239;-89
2023/02/25 21:29:13;;;;;;;23.00;12.00;;;;;;;1.18;99.79;97601.64;272544;1258;22645;-89
2023/02/25 21:35:20;;;;;;;27.60;13.70;;;;;;;1.16;100.00;97604.90;270771;1269;22630;-89
2023/02/25 21:41:24;;;;;;;31.20;15.10;;;;;;;1.15;100.00;97606.48;271207;1253;22505;-88
2023/02/25 21:47:26;;;;;;;30.60;14.30;;;;;;;1.15;100.00;97609.41;269961;1261;22544;-88
2023/02/25 21:53:28;;;;;;;26.00;13.30;;;;;;;1.13;100.00;97615.37;270611;1264;22552;-90
2023/02/25 21:59:30;;;;;;;24.80;13.70;;;;;;;1.09;100.00;97616.12;269672;1270;24262;-89
2023/02/25 22:05:32;;;;;;;23.70;13.60;;;;;;;1.08;100.00;97621.85;271204;1269;23693;-89
2023/02/25 22:11:36;;;;;;;23.30;12.90;;;;;;;1.05;100.00;97634.25;269552;1268;23018;-89
2023/02/25 22:17:38;;;;;;;20.80;12.30;;;;;;;1.02;100.00;97646.88;272220;1268;22328;-90
2023/02/25 22:23:47;;;;;;;23.00;13.30;;;;;;;0.98;100.00;97651.16;272447;1269;22756;-89
2023/02/25 22:29:49;;;;;;;19.10;12.40;;;;;;;0.95;100.00;97651.07;271505;1270;22329;-89
2023/02/25 22:36:03;;;;;;;21.00;12.80;;;;;;;0.91;100.00;97657.05;271899;1259;22616;-88
2023/02/25 22:42:05;;;;;;;22.50;12.60;;;;;;;0.92;100.00;97667.08;272561;1269;22549;-89
2023/02/25 22:48:08;;;;;;;26.70;15.20;;;;;;;0.88;100.00;97671.75;271016;1268;126237;-89
2023/02/25 22:54:15;;;;;;;27.00;13.80;;;;;;;0.85;100.00;97670.52;270427;1270;23309;-89
2023/02/25 23:00:18;;;;;;;29.20;15.10;;;;;;;0.83;100.00;97684.16;272479;1268;22420;-90
2023/02/25 23:06:24;;;;;;;30.40;14.90;;;;;;;0.85;100.00;97699.23;270380;1257;23230;-91
2023/02/25 23:12:26;;;;;;;28.60;15.50;;;;;;;0.87;100.00;97702.67;271414;1270;22638;-89
2023/02/25 23:18:28;;;;;;;26.80;14.50;;;;;;;0.87;100.00;97709.96;270624;1269;22714;-89
2023/02/25 23:24:43;;;;;;;33.00;16.40;;;;;;;0.86;100.00;97710.95;270073;1269;22549;-88
2023/02/25 23:30:45;;;;;;;31.00;15.40;;;;;;;0.85;100.00;97713.91;270762;1269;24179;-90
2023/02/25 23:36:56;;;;;;;32.30;16.30;;;;;;;0.86;100.00;97730.42;271119;1269;23418;-90
2023/02/25 23:43:03;;;;;;;29.50;16.50;;;;;;;0.87;100.00;97747.23;272033;1268;22426;-91
2023/02/25 23:49:06;;;;;;;29.90;15.60;;;;;;;0.89;100.00;97757.60;271031;1269;22573;-89
2023/02/25 23:55:10;;;;;;;27.80;15.80;;;;;;;0.91;100.00;97754.50;271393;1269;22559;-90
